Time;durP1;ratioP1;P1;durP2;ratioP2;P2;SDS_P1;SDS_P2;PMS_P1;PMS_P2;Temp;Humidity;BMP_temperature;BMP_pressure;BME280_temperature;BME280_humidity;BME280_pressure;Samples;Min_cycle;Max_cycle;Signal;HPM_P1;HPM_P2
2021/05/17 00:03:01;;;;;;;7.20;4.68;;;;;;;10.74;61.72;99013.93;153955;1096;103147;-73
2021/05/17 00:06:07;;;;;;;6.63;4.60;;;;;;;10.68;61.61;99005.81;153980;1096;103190;-74
2021/05/17 00:09:11;;;;;;;6.27;4.30;;;;;;;10.70;61.71;99001.13;154016;1096;103133;-74
2021/05/17 00:12:16;;;;;;;7.00;5.20;;;;;;;10.69;61.74;99000.31;153924;1101;103308;-75
2021/05/17 00:15:22;;;;;;;6.13;4.37;;;;;;;10.72;61.42;99004.44;153966;1096;103202;-74
2021/05/17 00:18:26;;;;;;;10.90;4.80;;;;;;;10.73;61.79;99006.11;154015;1094;103194;-73
2021/05/17 00:21:31;;;;;;;8.10;4.90;;;;;;;10.73;61.80;98995.44;153943;1101;104289;-72
2021/05/17 00:24:35;;;;;;;5.67;4.30;;;;;;;10.69;61.25;99010.16;153979;1101;103170;-76
2021/05/17 00:27:38;;;;;;;5.90;4.93;;;;;;;10.67;61.53;99006.84;153946;1101;103216;-75
2021/05/17 00:30:42;;;;;;;5.65;4.30;;;;;;;10.60;61.42;99002.25;153945;1096;103164;-73
2021/05/17 00:33:46;;;;;;;6.30;4.83;;;;;;;10.57;61.52;98999.13;153931;1096;103219;-75
2021/05/17 00:36:51;;;;;;;6.40;5.03;;;;;;;10.54;61.29;98999.48;153935;1096;103314;-75
2021/05/17 00:39:55;;;;;;;6.40;4.35;;;;;;;10.47;61.70;98995.88;153978;1094;103103;-75
2021/05/17 00:42:59;;;;;;;6.47;4.70;;;;;;;10.39;62.13;98999.47;153923;1101;103248;-74
2021/05/17 00:46:03;;;;;;;5.13;4.45;;;;;;;10.34;61.87;98993.88;153996;1095;103213;-74
2021/05/17 00:49:08;;;;;;;6.37;4.87;;;;;;;10.28;61.75;98999.91;153978;1096;103215;-73
2021/05/17 00:52:13;;;;;;;6.67;5.60;;;;;;;10.21;62.17;98995.28;153970;1096;103573;-72
2021/05/17 00:55:19;;;;;;;8.20;5.57;;;;;;;10.19;62.34;98997.30;154025;1096;103197;-73
2021/05/17 00:58:23;;;;;;;6.63;4.85;;;;;;;10.15;62.26;98995.19;154000;1101;103180;-72
2021/05/17 01:01:27;;;;;;;6.25;4.45;;;;;;;10.17;62.06;99004.65;153984;1101;103250;-70
2021/05/17 01:04:31;;;;;;;7.35;5.30;;;;;;;10.20;62.16;99003.48;153832;1101;103132;-72
2021/05/17 01:07:37;;;;;;;7.70;5.15;;;;;;;10.22;61.95;99007.61;153959;1101;103221;-71
2021/05/17 01:10:44;;;;;;;10.55;7.15;;;;;;;10.24;62.21;99002.11;153864;1096;103219;-70
2021/05/17 01:13:51;;;;;;;7.93;6.10;;;;;;;10.22;61.98;99007.61;153897;1096;103253;-72
2021/05/17 01:16:56;;;;;;;6.77;5.40;;;;;;;10.19;62.20;98999.97;154013;1096;103125;-74
2021/05/17 01:20:07;;;;;;;7.38;5.40;;;;;;;10.17;61.98;99001.98;153957;1096;103198;-70
2021/05/17 01:23:43;;;;;;;8.17;5.90;;;;;;;10.14;62.11;98994.37;153800;1096;103138;-71
2021/05/17 01:26:48;;;;;;;6.60;5.70;;;;;;;10.08;62.14;99007.58;154020;1101;103220;-74
2021/05/17 01:29:52;;;;;;;8.27;6.63;;;;;;;10.03;62.97;99008.13;153773;1095;103263;-71
2021/05/17 01:32:57;;;;;;;8.45;6.48;;;;;;;9.99;62.38;99012.16;153976;1101;103218;-73
2021/05/17 01:36:01;;;;;;;8.48;6.25;;;;;;;9.95;62.17;99008.17;153974;1101;103181;-72
2021/05/17 01:39:07;;;;;;;7.30;6.08;;;;;;;9.95;61.89;99005.52;153948;1101;103660;-72
2021/05/17 01:42:12;;;;;;;9.50;6.75;;;;;;;9.94;62.42;99009.20;154036;1101;103172;-72
2021/05/17 01:45:17;;;;;;;9.18;5.85;;;;;;;9.90;62.48;99013.23;154025;1101;103235;-72
2021/05/17 01:48:25;;;;;;;8.33;5.90;;;;;;;9.85;62.26;99012.94;153962;1096;103225;-72
2021/05/17 01:51:29;;;;;;;8.80;5.83;;;;;;;9.82;62.67;99011.47;153974;1101;103224;-71
2021/05/17 01:54:34;;;;;;;12.80;5.37;;;;;;;9.82;62.15;99009.63;153917;1096;103199;-71
2021/05/17 01:57:39;;;;;;;8.97;6.17;;;;;;;9.86;62.35;99006.61;154020;1096;103227;-72
2021/05/17 02:00:44;;;;;;;8.40;5.67;;;;;;;9.89;62.33;99008.90;153994;1094;103182;-71
2021/05/17 02:03:51;;;;;;;7.90;6.10;;;;;;;9.88;62.36;99009.92;153969;1096;103602;-75
2021/05/17 02:06:57;;;;;;;6.65;5.55;;;;;;;9.88;62.22;99009.92;153982;1096;103099;-73
2021/05/17 02:10:06;;;;;;;8.15;6.10;;;;;;;9.83;62.31;99005.97;153964;1096;103470;-73
2021/05/17 02:13:16;;;;;;;8.30;6.10;;;;;;;9.76;62.22;99007.68;154017;1101;103099;-75
2021/05/17 02:16:20;;;;;;;8.00;5.33;;;;;;;9.73;62.51;99002.70;153973;1101;103180;-75
2021/05/17 02:19:26;;;;;;;8.75;5.93;;;;;;;9.68;62.59;99013.08;154041;1095;103105;-76
2021/05/17 02:22:32;;;;;;;10.53;6.73;;;;;;;9.65;62.23;99012.59;153993;1096;103122;-77
2021/05/17 02:25:53;;;;;;;8.20;6.20;;;;;;;9.61;62.24;99006.80;153981;1101;103189;-73
2021/05/17 02:28:58;;;;;;;8.47;5.87;;;;;;;9.52;62.75;99006.01;154005;1096;103141;-73
2021/05/17 02:32:02;;;;;;;11.40;6.45;;;;;;;9.48;62.46;99009.21;153993;1095;103384;-73
2021/05/17 02:35:09;;;;;;;8.80;5.87;;;;;;;9.46;62.34;99017.38;153970;1096;103611;-73
2021/05/17 02:38:13;;;;;;;9.75;6.80;;;;;;;9.40;62.43;99020.74;153981;1101;103492;-74
2021/05/17 02:41:22;;;;;;;8.65;6.38;;;;;;;9.34;62.98;99016.95;153942;1096;103212;-73
2021/05/17 02:44:27;;;;;;;6.17;4.50;;;;;;;9.31;62.52;99024.45;154000;1101;103195;-75
2021/05/17 02:47:34;;;;;;;8.10;5.43;;;;;;;9.33;62.68;99033.91;153950;1101;103267;-73
2021/05/17 02:50:41;;;;;;;7.73;5.63;;;;;;;9.37;62.25;99032.58;153998;1101;103139;-77
2021/05/17 02:54:08;;;;;;;9.30;6.20;;;;;;;9.41;62.95;99033.89;154089;1101;103144;-78
2021/05/17 02:57:14;;;;;;;8.30;6.13;;;;;;;9.47;62.84;99026.18;153971;1096;103202;-74
2021/05/17 03:00:31;;;;;;;8.18;6.00;;;;;;;9.52;62.96;99029.16;153985;1101;103234;-75
2021/05/17 03:03:43;;;;;;;7.57;5.87;;;;;;;9.54;63.04;99027.14;153993;1095;103126;-75
2021/05/17 03:06:55;;;;;;;8.00;5.85;;;;;;;9.57;62.86;99027.63;153982;1096;103227;-78
2021/05/17 03:10:03;;;;;;;8.67;6.40;;;;;;;9.64;62.88;99017.08;153965;1096;103557;-77
2021/05/17 03:13:12;;;;;;;7.97;6.13;;;;;;;9.71;63.21;99017.20;153983;1101;103246;-78
2021/05/17 03:16:16;;;;;;;9.03;7.08;;;;;;;9.75;62.88;99024.66;153983;1101;103224;-74
2021/05/17 03:19:23;;;;;;;7.63;6.03;;;;;;;9.80;62.83;99027.63;153987;1101;103213;-75
2021/05/17 03:22:31;;;;;;;7.63;5.90;;;;;;;9.85;62.77;99031.59;154002;1101;103227;-76
2021/05/17 03:25:36;;;;;;;8.00;6.70;;;;;;;9.92;63.62;99029.88;153972;1095;103217;-78
2021/05/17 03:28:40;;;;;;;7.33;5.78;;;;;;;9.96;63.54;99028.50;154024;1096;103156;-80
2021/05/17 03:31:43;;;;;;;6.57;5.07;;;;;;;10.08;63.61;99027.05;153984;1096;103218;-76
2021/05/17 03:34:47;;;;;;;7.50;5.80;;;;;;;10.37;64.33;99033.48;153967;1094;103256;-79
2021/05/17 03:37:51;;;;;;;9.03;5.83;;;;;;;10.60;63.47;99038.75;154027;1101;103209;-75
2021/05/17 03:40:54;;;;;;;7.38;6.35;;;;;;;10.80;63.83;99036.38;153968;1095;103198;-77
2021/05/17 03:43:58;;;;;;;7.97;6.57;;;;;;;11.04;63.85;99039.77;153981;1094;103224;-75
2021/05/17 03:47:02;;;;;;;8.05;7.00;;;;;;;11.27;63.99;99040.45;154020;1101;103124;-74
2021/05/17 03:50:08;;;;;;;9.10;7.08;;;;;;;11.55;64.19;99035.23;153966;1096;103233;-73
2021/05/17 03:53:12;;;;;;;10.00;7.40;;;;;;;11.82;63.61;99037.32;154154;1095;103239;-74
2021/05/17 03:56:16;;;;;;;9.10;7.60;;;;;;;12.08;64.00;99037.59;154027;1101;103193;-73
2021/05/17 03:59:19;;;;;;;8.10;6.37;;;;;;;12.31;63.60;99037.38;153916;1101;103158;-74
2021/05/17 04:02:24;;;;;;;8.80;6.40;;;;;;;12.58;63.73;99038.38;153969;1101;103760;-75
2021/05/17 04:05:35;;;;;;;8.30;6.43;;;;;;;12.91;63.29;99042.28;153945;1101;103339;-74
2021/05/17 04:15:23;;;;;;;8.87;7.50;;;;;;;13.78;63.37;99050.66;153924;1101;103217;-74
2021/05/17 04:18:26;;;;;;;9.60;8.60;;;;;;;13.97;63.07;99055.22;153950;1101;103184;-76
2021/05/17 04:21:30;;;;;;;8.77;7.87;;;;;;;14.16;62.94;99050.09;153936;1096;103371;-73
2021/05/17 04:24:33;;;;;;;8.65;7.75;;;;;;;14.28;62.98;99043.91;153953;1101;103195;-75
2021/05/17 04:27:38;;;;;;;10.13;8.70;;;;;;;14.46;62.80;99050.50;154001;1096;103218;-73
2021/05/17 04:30:41;;;;;;;11.45;10.05;;;;;;;14.59;62.89;99045.15;153921;1101;103114;-74
2021/05/17 04:33:45;;;;;;;13.15;9.93;;;;;;;14.75;62.78;99043.06;154016;1101;103205;-72
2021/05/17 04:36:48;;;;;;;9.28;7.48;;;;;;;14.97;62.74;99035.55;153933;1096;103271;-73
2021/05/17 04:39:52;;;;;;;12.43;8.93;;;;;;;15.22;62.61;99044.57;154054;1101;103142;-75
2021/05/17 04:42:55;;;;;;;11.67;9.00;;;;;;;15.60;62.71;99038.36;153970;1101;103100;-75
2021/05/17 04:45:59;;;;;;;10.83;9.00;;;;;;;15.89;62.41;99039.66;153977;1101;103244;-76
2021/05/17 04:49:02;;;;;;;10.60;9.13;;;;;;;16.04;62.24;99030.47;153977;1101;103142;-74
2021/05/17 04:52:07;;;;;;;10.47;8.70;;;;;;;16.17;62.49;99040.31;153962;1095;103560;-75
2021/05/17 04:55:12;;;;;;;10.73;9.07;;;;;;;16.28;62.85;99048.49;153944;1096;103147;-75
2021/05/17 04:58:15;;;;;;;11.37;8.90;;;;;;;16.54;62.02;99051.17;153978;1101;103233;-75
2021/05/17 05:01:19;;;;;;;10.20;8.10;;;;;;;16.70;61.75;99050.58;154166;1101;103221;-74
2021/05/17 05:04:22;;;;;;;8.80;7.90;;;;;;;16.76;62.19;99049.69;154031;1101;103180;-74
2021/05/17 05:07:26;;;;;;;8.33;7.43;;;;;;;16.80;61.81;99052.76;153941;1101;103239;-74
2021/05/17 05:10:29;;;;;;;9.70;7.73;;;;;;;16.74;61.66;99042.88;154010;1095;103290;-73
2021/05/17 05:13:33;;;;;;;9.28;8.13;;;;;;;16.73;61.23;99033.17;153932;1096;103211;-73
2021/05/17 05:16:37;;;;;;;10.05;7.80;;;;;;;16.66;61.46;99025.14;153964;1101;103230;-73
2021/05/17 05:19:40;;;;;;;10.70;8.20;;;;;;;16.70;61.06;99004.79;154048;1101;103107;-73
2021/05/17 05:22:44;;;;;;;8.53;7.43;;;;;;;16.76;61.42;99011.97;154057;1101;103265;-74
2021/05/17 05:29:15;;;;;;;7.27;6.47;;;;;;;16.86;60.96;99020.41;153816;1101;103127;-74
2021/05/17 05:32:26;;;;;;;8.70;7.45;;;;;;;16.87;60.84;99030.12;153977;1101;103195;-72
2021/05/17 05:35:30;;;;;;;11.50;7.43;;;;;;;16.89;60.74;99032.59;154202;1101;103145;-74
2021/05/17 05:38:33;;;;;;;8.38;7.23;;;;;;;16.94;60.61;99037.33;154210;1101;103187;-74
2021/05/17 05:41:37;;;;;;;8.30;6.90;;;;;;;16.96;60.60;99033.36;154314;1101;103306;-74
2021/05/17 05:44:43;;;;;;;7.05;6.30;;;;;;;17.08;60.59;99036.12;154089;1101;103170;-74
2021/05/17 05:47:47;;;;;;;10.18;7.98;;;;;;;17.15;60.07;99039.56;154030;1101;103224;-74
2021/05/17 05:50:52;;;;;;;10.90;7.30;;;;;;;17.05;60.16;99047.33;154372;1096;103104;-72
2021/05/17 05:53:56;;;;;;;10.23;7.95;;;;;;;17.03;59.96;99041.34;154036;1096;103224;-73
2021/05/17 05:56:59;;;;;;;8.73;7.20;;;;;;;17.09;59.98;99043.17;153941;1094;103123;-72
2021/05/17 06:00:04;;;;;;;8.55;7.30;;;;;;;17.04;60.09;99037.63;153967;1101;103224;-73
2021/05/17 06:03:16;;;;;;;8.37;6.70;;;;;;;17.03;60.02;99038.66;154065;1101;103109;-72
2021/05/17 06:06:20;;;;;;;8.93;6.43;;;;;;;17.05;59.77;99040.09;154042;1101;103129;-73
2021/05/17 06:09:24;;;;;;;8.07;5.63;;;;;;;17.07;60.05;99029.91;154004;1095;103535;-73
2021/05/17 06:12:28;;;;;;;8.08;6.25;;;;;;;17.07;59.47;99035.30;153998;1101;103138;-72
2021/05/17 06:15:32;;;;;;;6.67;5.60;;;;;;;17.04;59.58;99024.95;154039;1096;103141;-72
2021/05/17 06:18:37;;;;;;;7.05;5.70;;;;;;;17.05;59.52;99036.55;154006;1101;103103;-72
2021/05/17 06:21:41;;;;;;;8.57;5.60;;;;;;;16.96;59.44;99029.84;154090;1101;103196;-73
2021/05/17 06:24:45;;;;;;;8.43;6.10;;;;;;;16.94;59.15;99011.20;153974;1095;103304;-73
2021/05/17 06:27:49;;;;;;;7.30;5.58;;;;;;;16.92;59.30;99010.61;154018;1096;103219;-72
2021/05/17 06:30:56;;;;;;;7.43;5.18;;;;;;;16.96;59.20;99019.88;154123;1101;103476;-72
2021/05/17 06:34:00;;;;;;;7.55;5.35;;;;;;;16.99;59.17;99010.52;153964;1096;103187;-72
2021/05/17 06:37:04;;;;;;;6.33;4.85;;;;;;;16.97;59.35;99012.61;154192;1095;103253;-73
2021/05/17 06:40:11;;;;;;;7.00;5.00;;;;;;;16.96;59.37;99000.20;154161;1101;103228;-70
2021/05/17 06:43:16;;;;;;;6.97;4.73;;;;;;;17.00;59.34;99006.78;154088;1101;103144;-73
2021/05/17 06:46:20;;;;;;;5.70;4.60;;;;;;;17.06;59.20;99005.88;154024;1101;103112;-73
2021/05/17 06:49:26;;;;;;;4.70;4.08;;;;;;;17.10;59.05;99008.94;154022;1101;103291;-73
2021/05/17 06:52:31;;;;;;;6.10;3.47;;;;;;;17.11;58.87;99002.48;154070;1101;103157;-73
2021/05/17 06:55:40;;;;;;;5.80;4.23;;;;;;;17.16;58.92;98999.95;153925;1101;103276;-72
2021/05/17 06:58:54;;;;;;;5.98;3.83;;;;;;;17.21;58.75;99005.49;153999;1101;103231;-72
2021/05/17 07:01:58;;;;;;;8.13;4.80;;;;;;;17.25;58.97;98994.02;153963;1096;103150;-72
2021/05/17 07:05:04;;;;;;;7.23;4.58;;;;;;;17.32;58.43;99004.73;154006;1101;103163;-72
2021/05/17 07:11:36;;;;;;;6.27;3.97;;;;;;;17.39;57.99;99004.63;153965;1094;103203;-74
2021/05/17 07:14:39;;;;;;;4.60;3.08;;;;;;;17.44;58.06;98996.69;153928;1101;103126;-74
2021/05/17 07:17:44;;;;;;;6.58;4.20;;;;;;;17.52;58.12;98998.23;153933;1101;103097;-73
2021/05/17 07:24:09;;;;;;;;;;;;;;;17.71;58.33;99001.70;153984;1101;103229;-74
2021/05/17 07:27:12;;;;;;;3.70;2.83;;;;;;;17.78;57.72;98997.84;153964;1101;103226;-72
2021/05/17 07:30:18;;;;;;;5.80;3.80;;;;;;;17.91;57.85;98996.83;153994;1101;103217;-72
2021/05/17 07:33:22;;;;;;;4.85;3.38;;;;;;;18.03;57.35;98988.75;154084;1101;103115;-73
2021/05/17 07:36:25;;;;;;;4.17;3.10;;;;;;;18.18;57.48;98994.52;153915;1096;103195;-73
2021/05/17 07:39:29;;;;;;;4.55;3.00;;;;;;;18.43;56.90;98994.28;153995;1096;103569;-72
2021/05/17 07:42:32;;;;;;;4.18;3.73;;;;;;;18.72;56.93;98997.08;153898;1101;103188;-73
2021/05/17 07:45:36;;;;;;;4.25;3.18;;;;;;;19.00;56.56;98993.66;153988;1101;103095;-73
2021/05/17 07:51:58;;;;;;;3.55;2.38;;;;;;;19.47;56.10;98987.25;153918;1095;103148;-72
2021/05/17 07:55:01;;;;;;;3.47;2.23;;;;;;;19.70;56.11;98996.33;153961;1096;103158;-72
2021/05/17 07:58:05;;;;;;;2.67;2.13;;;;;;;19.94;55.69;98995.16;153926;1095;103254;-72
2021/05/17 08:01:08;;;;;;;3.28;2.18;;;;;;;20.09;54.61;98991.89;153954;1101;103110;-73
2021/05/17 08:04:14;;;;;;;3.27;2.30;;;;;;;20.32;54.26;98996.31;153975;1101;103121;-73
2021/05/17 08:07:18;;;;;;;3.07;2.20;;;;;;;20.54;54.16;98990.92;153971;1101;103240;-72
2021/05/17 08:10:22;;;;;;;3.60;1.80;;;;;;;20.75;54.25;98983.92;154119;1096;103227;-73
2021/05/17 08:13:25;;;;;;;4.07;1.83;;;;;;;20.91;54.05;98986.83;154169;1096;103183;-71
2021/05/17 08:16:32;;;;;;;2.30;1.80;;;;;;;21.04;53.84;98981.03;154403;1101;103221;-73
2021/05/17 08:19:36;;;;;;;2.90;1.70;;;;;;;21.18;53.48;98967.90;154105;1094;103218;-73
2021/05/17 08:22:40;;;;;;;2.10;1.50;;;;;;;21.22;53.36;98968.21;154018;1101;103125;-74
2021/05/17 08:25:44;;;;;;;2.90;1.80;;;;;;;21.23;52.93;98965.25;153989;1101;103141;-74
2021/05/17 08:28:48;;;;;;;2.27;1.70;;;;;;;21.25;52.89;98971.23;154046;1101;103122;-73
2021/05/17 08:31:53;;;;;;;1.63;1.33;;;;;;;21.32;52.56;98982.69;154142;1101;103195;-74
2021/05/17 08:34:57;;;;;;;2.30;1.25;;;;;;;21.33;51.70;98965.34;153971;1094;103107;-75
2021/05/17 08:38:00;;;;;;;2.68;1.60;;;;;;;21.45;50.57;98956.27;153985;1101;103104;-73
2021/05/17 08:41:05;;;;;;;3.18;1.58;;;;;;;21.48;51.67;98945.73;154120;1095;103122;-71
2021/05/17 08:44:08;;;;;;;2.10;1.60;;;;;;;21.33;49.20;98942.83;154226;1101;103118;-73
2021/05/17 08:47:13;;;;;;;3.47;1.80;;;;;;;21.02;50.52;98950.64;154004;1101;103139;-72
2021/05/17 08:50:16;;;;;;;4.10;1.70;;;;;;;20.94;51.07;98953.80;154234;1096;103660;-70
2021/05/17 08:53:20;;;;;;;2.80;2.05;;;;;;;20.94;50.56;98954.62;153863;1101;103099;-71
2021/05/17 08:56:24;;;;;;;2.05;1.43;;;;;;;20.83;50.46;98941.19;154198;1095;103099;-72
2021/05/17 08:59:27;;;;;;;3.67;2.00;;;;;;;20.79;50.34;98954.42;154008;1101;103201;-73
2021/05/17 09:02:30;;;;;;;2.18;1.63;;;;;;;;;;154020;1101;103217;-71
2021/05/17 09:05:35;;;;;;;3.07;1.63;;;;;;;21.05;50.45;98947.41;153981;1101;103212;-72
2021/05/17 09:08:43;;;;;;;3.88;1.78;;;;;;;21.25;50.25;98945.98;153944;1101;103100;-72
2021/05/17 09:11:49;;;;;;;3.90;1.97;;;;;;;21.32;49.69;98952.03;153987;1096;103143;-72
2021/05/17 09:14:57;;;;;;;2.50;1.80;;;;;;;21.31;49.44;98942.27;154118;1096;103208;-74
2021/05/17 09:18:03;;;;;;;2.40;1.50;;;;;;;21.25;49.44;98948.70;153983;1101;103119;-72
2021/05/17 09:21:07;;;;;;;3.37;1.80;;;;;;;21.24;49.74;98955.21;154019;1095;103149;-72
2021/05/17 09:24:29;;;;;;;2.85;1.90;;;;;;;21.30;49.39;98954.19;153979;1101;103115;-72
2021/05/17 09:27:32;;;;;;;4.80;2.00;;;;;;;21.39;49.26;98949.95;153984;1095;103496;-72
2021/05/17 09:30:50;;;;;;;3.27;1.50;;;;;;;21.44;49.32;98954.63;154007;1101;103345;-71
2021/05/17 09:33:56;;;;;;;3.23;1.90;;;;;;;21.44;48.49;98955.47;153963;1101;103103;-74
2021/05/17 09:37:03;;;;;;;3.27;2.00;;;;;;;21.46;48.84;98963.33;153986;1095;103221;-73
2021/05/17 09:40:17;;;;;;;3.60;1.90;;;;;;;21.54;48.91;98960.98;153914;1101;103215;-72
2021/05/17 09:43:21;;;;;;;5.18;1.73;;;;;;;21.58;48.89;98960.48;154071;1101;103144;-73
2021/05/17 09:46:25;;;;;;;2.47;1.77;;;;;;;21.56;48.69;98953.40;153800;1101;103187;-73
2021/05/17 09:49:37;;;;;;;2.18;1.45;;;;;;;21.52;49.00;98957.70;154067;1101;103132;-74
2021/05/17 09:52:41;;;;;;;2.50;1.60;;;;;;;21.51;48.65;98958.77;154030;1101;103570;-72
2021/05/17 09:55:47;;;;;;;1.83;1.40;;;;;;;21.48;48.58;98956.59;154002;1101;103139;-73
2021/05/17 09:58:56;;;;;;;2.30;1.43;;;;;;;21.46;48.35;98964.17;154038;1101;103136;-71
2021/05/17 10:02:00;;;;;;;2.07;1.13;;;;;;;21.44;48.44;98950.04;154027;1096;103656;-73
2021/05/17 10:05:22;;;;;;;2.20;1.50;;;;;;;21.48;48.00;98958.45;153991;1101;103195;-72
2021/05/17 10:08:26;;;;;;;2.27;1.20;;;;;;;21.50;47.87;98959.05;154016;1101;103148;-73
2021/05/17 10:11:30;;;;;;;1.63;1.27;;;;;;;21.51;47.52;98952.53;153937;1096;103200;-72
2021/05/17 10:14:34;;;;;;;3.10;1.80;;;;;;;21.43;47.51;98951.06;154036;1096;103132;-72
2021/05/17 10:17:38;;;;;;;1.50;1.30;;;;;;;21.46;47.87;98947.88;154007;1101;103762;-73
2021/05/17 10:20:42;;;;;;;1.70;1.40;;;;;;;21.73;47.36;98938.91;154089;1101;103131;-72
2021/05/17 10:23:47;;;;;;;2.20;1.53;;;;;;;21.86;47.42;98940.34;153991;1101;103168;-72
2021/05/17 10:26:51;;;;;;;2.45;1.58;;;;;;;22.01;47.21;98942.36;153958;1096;103164;-73
2021/05/17 10:30:00;;;;;;;2.80;1.70;;;;;;;22.05;45.32;98941.57;153943;1096;103140;-73
2021/05/17 10:33:06;;;;;;;2.65;1.55;;;;;;;21.90;46.41;98945.02;153988;1096;103217;-71
2021/05/17 10:36:11;;;;;;;2.35;1.35;;;;;;;21.92;46.67;98942.86;153998;1101;103244;-73
2021/05/17 10:39:15;;;;;;;4.15;1.50;;;;;;;21.91;46.57;98933.05;154129;1096;103102;-72
2021/05/17 10:42:24;;;;;;;2.23;1.30;;;;;;;21.92;46.54;98936.58;153950;1096;103192;-70
2021/05/17 10:49:19;;;;;;;1.40;1.10;;;;;;;21.87;46.34;98942.80;154100;1101;103262;-73
2021/05/17 10:52:25;;;;;;;2.13;1.23;;;;;;;21.80;46.26;98939.48;154044;1101;103140;-72
2021/05/17 10:55:30;;;;;;;3.48;1.40;;;;;;;21.72;46.61;98945.39;153934;1101;103138;-72
2021/05/17 11:02:23;;;;;;;2.28;1.10;;;;;;;21.43;46.62;98948.35;153965;1096;103216;-72
2021/05/17 11:05:32;;;;;;;2.65;1.60;;;;;;;21.38;46.64;98941.00;153985;1095;103227;-73
2021/05/17 11:08:48;;;;;;;2.57;1.43;;;;;;;21.35;46.56;98940.68;153961;1096;103212;-73
2021/05/17 11:11:51;;;;;;;2.25;1.40;;;;;;;21.39;46.32;98930.95;153964;1094;103215;-73
2021/05/17 11:15:06;;;;;;;2.10;1.50;;;;;;;21.46;46.51;98926.17;153989;1101;103487;-72
2021/05/17 11:18:29;;;;;;;3.05;1.70;;;;;;;21.62;46.41;98918.17;153872;1101;103105;-72
2021/05/17 11:21:33;;;;;;;2.93;1.50;;;;;;;21.81;46.10;98922.13;153972;1101;103481;-74
2021/05/17 11:24:38;;;;;;;2.80;1.50;;;;;;;22.01;46.24;98920.64;154124;1101;103120;-70
2021/05/17 11:27:52;;;;;;;2.68;1.40;;;;;;;22.15;45.70;98925.36;153844;1096;103107;-72
2021/05/17 11:31:04;;;;;;;2.23;1.50;;;;;;;22.14;45.12;98925.63;153821;1101;103253;-73
2021/05/17 11:34:14;;;;;;;2.80;1.53;;;;;;;21.96;45.05;98935.82;153995;1096;103153;-73
2021/05/17 11:37:17;;;;;;;1.90;1.20;;;;;;;21.75;45.14;98934.03;154030;1096;103425;-72
2021/05/17 11:40:30;;;;;;;2.93;1.30;;;;;;;21.67;45.57;98931.77;153948;1101;103221;-72
2021/05/17 11:43:43;;;;;;;1.63;1.43;;;;;;;21.61;46.03;98938.23;154026;1095;103169;-71
2021/05/17 11:46:49;;;;;;;2.40;1.38;;;;;;;21.51;45.63;98934.34;154158;1095;103139;-73
2021/05/17 11:49:55;;;;;;;2.23;1.50;;;;;;;21.45;45.52;98932.66;154056;1101;103206;-73
2021/05/17 11:52:59;;;;;;;2.80;1.40;;;;;;;21.55;45.48;98931.94;153870;1101;103560;-71
2021/05/17 11:56:05;;;;;;;1.93;1.40;;;;;;;21.54;45.24;98939.27;154041;1101;103195;-74
2021/05/17 11:59:12;;;;;;;1.30;1.10;;;;;;;21.53;45.27;98932.19;153968;1096;103589;-72
2021/05/17 12:02:16;;;;;;;2.25;1.40;;;;;;;21.51;45.27;98928.91;154117;1101;103115;-72
2021/05/17 12:05:24;;;;;;;2.20;1.40;;;;;;;21.45;45.34;98929.95;154000;1101;103106;-73
2021/05/17 12:08:28;;;;;;;2.17;1.50;;;;;;;21.37;45.67;98935.81;153956;1096;103178;-73
2021/05/17 12:11:31;;;;;;;2.60;1.47;;;;;;;21.31;45.56;98934.13;153973;1101;103247;-75
2021/05/17 12:14:36;;;;;;;3.48;1.90;;;;;;;21.24;45.93;98939.75;153952;1096;103140;-73
2021/05/17 12:17:40;;;;;;;2.17;1.33;;;;;;;21.16;45.71;98940.20;154073;1095;103142;-75
2021/05/17 12:20:43;;;;;;;2.85;1.70;;;;;;;21.09;45.96;98945.81;154152;1101;103097;-74
2021/05/17 12:23:47;;;;;;;2.93;1.50;;;;;;;21.10;45.56;98939.33;154033;1095;103243;-74
2021/05/17 12:26:54;;;;;;;2.60;1.38;;;;;;;21.08;45.54;98944.19;154222;1101;103233;-74
2021/05/17 12:30:03;;;;;;;2.53;1.50;;;;;;;21.07;45.87;98928.17;154039;1101;103187;-73
2021/05/17 12:33:07;;;;;;;5.07;3.70;;;;;;;21.12;45.68;98939.89;154361;1101;103101;-74
2021/05/17 12:36:10;;;;;;;2.87;1.70;;;;;;;21.23;45.45;98934.56;154101;1093;103107;-73
2021/05/17 12:39:18;;;;;;;8.33;3.07;;;;;;;21.32;45.16;98920.28;154120;1094;103565;-73
2021/05/17 12:42:22;;;;;;;4.00;1.50;;;;;;;21.47;45.31;98924.27;154157;1101;103565;-74
2021/05/17 12:45:25;;;;;;;2.13;1.70;;;;;;;21.55;45.05;98927.32;154315;1096;103123;-73
2021/05/17 12:48:32;;;;;;;2.95;1.55;;;;;;;21.60;45.17;98928.47;154045;1095;103147;-73
2021/05/17 12:51:36;;;;;;;2.78;1.50;;;;;;;21.63;45.15;98919.79;153978;1101;103220;-74
2021/05/17 12:54:40;;;;;;;2.80;1.45;;;;;;;21.68;44.93;98919.84;153971;1096;103272;-74
2021/05/17 12:57:52;;;;;;;2.37;1.50;;;;;;;21.75;44.62;98917.73;153991;1096;103191;-73
2021/05/17 13:00:56;;;;;;;3.17;1.40;;;;;;;21.79;44.53;98926.16;154150;1101;103192;-74
2021/05/17 13:03:59;;;;;;;2.17;1.53;;;;;;;21.81;44.59;98915.89;154292;1101;103192;-74
2021/05/17 13:07:05;;;;;;;2.55;1.70;;;;;;;21.81;44.55;98916.70;153973;1101;103131;-73
2021/05/17 13:10:10;;;;;;;2.00;1.40;;;;;;;21.79;44.39;98915.30;154183;1101;103561;-74
2021/05/17 13:13:14;;;;;;;3.87;1.90;;;;;;;21.81;44.49;98922.13;154080;1094;103159;-75
2021/05/17 13:16:20;;;;;;;3.10;1.77;;;;;;;21.81;44.30;98919.41;154025;1096;103249;-75
2021/05/17 13:23:08;;;;;;;2.30;1.40;;;;;;;21.72;44.13;98913.63;153992;1096;103216;-74
2021/05/17 13:30:05;;;;;;;3.23;1.60;;;;;;;21.58;44.51;98906.20;154026;1101;103135;-76
2021/05/17 13:33:10;;;;;;;3.35;1.70;;;;;;;21.44;44.38;98906.62;154102;1095;103141;-75
2021/05/17 13:36:15;;;;;;;2.67;1.80;;;;;;;21.22;44.42;98909.34;153947;1095;103183;-72
2021/05/17 13:39:19;;;;;;;1.87;1.57;;;;;;;21.04;44.30;98905.09;154027;1095;103144;-74
2021/05/17 13:42:21;;;;;;;2.93;2.00;;;;;;;;;;154066;1101;103193;-73
2021/05/17 13:45:25;;;;;;;4.10;2.07;;;;;;;20.71;44.58;98906.09;154083;1101;103243;-76
2021/05/17 13:48:29;;;;;;;3.70;2.20;;;;;;;20.59;44.90;98911.57;154037;1101;103294;-75
2021/05/17 13:51:32;;;;;;;2.78;1.80;;;;;;;20.43;44.90;98907.04;153986;1096;103144;-75
2021/05/17 13:54:36;;;;;;;3.58;2.20;;;;;;;20.28;44.97;98911.16;154142;1096;103557;-75
2021/05/17 13:57:40;;;;;;;3.20;1.77;;;;;;;20.10;45.18;98903.34;154069;1101;103227;-72
2021/05/17 14:00:44;;;;;;;2.60;2.00;;;;;;;19.92;45.39;98909.81;154245;1096;103131;-74
2021/05/17 14:03:47;;;;;;;2.35;1.90;;;;;;;19.78;46.04;98901.22;154094;1096;103197;-74
2021/05/17 14:06:51;;;;;;;1.93;1.60;;;;;;;19.67;46.21;98911.05;154290;1095;103282;-73
2021/05/17 14:09:54;;;;;;;4.75;1.73;;;;;;;19.56;46.20;98914.64;153984;1094;103171;-72
2021/05/17 14:12:58;;;;;;;3.70;2.10;;;;;;;19.45;46.74;98923.64;154459;1096;103193;-71
2021/05/17 14:16:02;;;;;;;3.77;1.90;;;;;;;19.29;46.81;98926.08;154209;1096;103171;-74
2021/05/17 14:19:06;;;;;;;2.45;1.50;;;;;;;19.08;47.18;98935.69;154200;1096;103556;-69
2021/05/17 14:22:11;;;;;;;2.73;1.60;;;;;;;18.79;47.58;98951.84;153843;1101;103205;-70
2021/05/17 14:25:16;;;;;;;3.93;1.53;;;;;;;18.56;47.96;98954.59;153855;1101;103131;-70
2021/05/17 14:28:19;;;;;;;2.60;1.70;;;;;;;18.39;48.53;98951.79;154119;1101;103107;-71
2021/05/17 14:31:23;;;;;;;3.27;1.90;;;;;;;18.34;48.98;98957.91;153791;1101;103196;-71
2021/05/17 14:34:27;;;;;;;2.18;1.90;;;;;;;18.31;49.08;98960.26;153776;1101;103128;-71
2021/05/17 14:37:30;;;;;;;2.80;2.30;;;;;;;18.17;50.24;98959.67;153847;1101;103282;-69
2021/05/17 14:40:34;;;;;;;2.40;1.95;;;;;;;18.01;50.22;98953.92;153826;1095;103121;-70
2021/05/17 14:43:37;;;;;;;3.27;2.17;;;;;;;17.96;50.21;98959.19;153691;1101;103309;-69
2021/05/17 14:46:41;;;;;;;2.93;2.20;;;;;;;17.95;50.45;98959.41;153837;1101;103219;-70
2021/05/17 14:49:45;;;;;;;2.53;2.20;;;;;;;17.94;51.01;98958.59;153964;1095;103219;-69
2021/05/17 14:52:48;;;;;;;3.20;2.13;;;;;;;17.84;51.65;98961.02;153798;1096;103133;-68